Schriever, LA (70395)

9:33 AM CDT on July 30, 2015 (GMT -0500)
Jerry's House (Schriever) | | Change Station
CLOSE
Current Station
Personal Weather Station
Location: Thibodaux, LA
Elevation: 11 ft
Nearby Weather Stations

Elev 11 ft 29.76 °N, 90.82 °W | Updated 25 seconds ago

Partly Cloudy
Partly Cloudy
86.0 °F
Feels Like 100 °F
N
4.0
Wind Variable Wind from NNW
Gusts 6.0 mph

Today
High -- | Low -- °F
--% Chance of Precip.
Yesterday
High -- | Low -- °F
Precip. -- in
6:21 AM 7:57 PM
Waxing Gibbous, 99% visible
Pressure 30.02 in
Visibility 6.0 miles
Clouds Clear
Heat Index 100 °F
Dew Point 79 °F
Humidity 80%
Rainfall 0.00 in
Snow Depth Not available.
UV 4 out of 12
Pollen 1.80 out of 12
Air Quality Not available.
Flu Activity Not available.
METAR KHUM 301350Z 35003KT 6SM HZ SKC 29/25 A3002 RMK ATIS Q...VA RY36...RC

More Conditions Fewer Conditions

Pressure 30.02 in
Visibility 6.0 miles
Clouds Clear
Heat Index 100 °F
Dew Point 79 °F
Humidity 80%
Rainfall 0.00 in
Snow Depth Not available.
UV 4 out of 12
Pollen 1.80 out of 12
Air Quality Not available.
Flu Activity Not available.
METAR KHUM 301350Z 35003KT 6SM HZ SKC 29/25 A3002 RMK ATIS Q...VA RY36...RC

More Conditions Fewer Conditions

10-Day Weather Forecast

×

Almanac

Astronomy

Jul. 30, 2015 Rise Set
Actual Time
Civil Twilight
Nautical Twilight
Astronomical Twilight
Moon
Length of Visible Light
Length of Day
Tomorrow will be .
, % of the Moon is Illuminated

Today's Extremes

State Highs State Lows

Community

WunderPhotos

Upload Photos

1,842,399 photos uploaded!

WunderBlogs® & News

Nearby

Air Quality

  Air Quality AQ Index Pollutant
Not available.

Snow Depth

Station Depth Elevation

Earthquake Activity

City Distance Mag. Time & Date
Minimum magnitude displayed is 2.5.

Coastal Water Temperatures

Place Temperature

Stations

Nearby Weather Stations

Station Location Temp. Windchill Dew Point Humidity Wind Precip. Elev Updated Type